createdAt,value
2022-08-30T00:02:14.485Z,59.82
2022-08-30T00:04:40.861Z,59.93
2022-08-30T00:07:07.257Z,60.24
2022-08-30T00:09:33.631Z,59.89
2022-08-30T00:12:00.064Z,60.02
2022-08-30T00:14:27.467Z,60.08
2022-08-30T00:16:53.858Z,61.02
2022-08-30T00:19:20.218Z,60.84
2022-08-30T00:21:46.570Z,61.05
2022-08-30T00:24:12.926Z,61.01
2022-08-30T00:26:39.275Z,61.35
2022-08-30T00:29:05.650Z,60.20
2022-08-30T00:31:32.041Z,60.20
2022-08-30T00:33:58.418Z,60.51
2022-08-30T00:36:24.770Z,60.82
2022-08-30T00:38:51.153Z,60.32
2022-08-30T00:41:17.529Z,60.58
2022-08-30T00:43:43.947Z,60.94
2022-08-30T00:46:10.529Z,61.00
2022-08-30T00:48:37.952Z,60.73
2022-08-30T00:51:07.470Z,61.11
2022-08-30T00:53:37.664Z,61.07
2022-08-30T00:56:04.140Z,60.52
2022-08-30T00:58:37.466Z,59.85
2022-08-30T01:01:04.391Z,59.96
2022-08-30T01:03:30.779Z,59.96
2022-08-30T01:05:57.134Z,60.21
2022-08-30T01:08:23.486Z,60.14
2022-08-30T01:10:50.140Z,60.35
2022-08-30T01:13:16.569Z,60.29
2022-08-30T01:15:43.190Z,60.34
2022-08-30T01:18:11.512Z,60.60
2022-08-30T01:20:54.649Z,60.35
2022-08-30T01:23:21.022Z,60.18
2022-08-30T01:25:47.985Z,59.98
2022-08-30T01:28:15.551Z,60.33
2022-08-30T01:30:43.001Z,59.82
2022-08-30T01:33:09.661Z,60.61
2022-08-30T01:35:44.125Z,60.80
2022-08-30T01:38:10.878Z,60.32
2022-08-30T01:40:37.369Z,60.30
2022-08-30T01:43:03.806Z,60.16
2022-08-30T01:45:30.182Z,60.06
2022-08-30T01:47:56.569Z,60.07
2022-08-30T01:50:26.208Z,60.26
2022-08-30T01:52:52.574Z,60.29
2022-08-30T01:55:19.548Z,59.90
2022-08-30T01:57:46.968Z,59.85
2022-08-30T02:00:13.474Z,60.35
2022-08-30T02:02:39.835Z,60.60
2022-08-30T02:05:06.875Z,60.44
2022-08-30T02:07:33.246Z,60.50
2022-08-30T02:09:59.600Z,60.37
2022-08-30T02:12:25.972Z,60.38
2022-08-30T02:14:52.332Z,60.72
2022-08-30T02:17:19.425Z,60.41
2022-08-30T02:19:45.781Z,60.09
2022-08-30T02:22:12.125Z,60.09
2022-08-30T02:24:38.520Z,60.51
2022-08-30T02:27:04.990Z,60.10
2022-08-30T02:29:31.336Z,60.21
2022-08-30T02:31:57.685Z,59.87
2022-08-30T02:34:24.046Z,60.02
2022-08-30T02:36:50.506Z,60.09
2022-08-30T02:39:16.862Z,60.05
2022-08-30T02:41:43.229Z,60.52
2022-08-30T02:44:10.714Z,60.69
2022-08-30T02:46:37.098Z,60.88
2022-08-30T02:49:23.770Z,60.77
2022-08-30T02:51:49.783Z,60.72
2022-08-30T02:54:19.835Z,60.86
2022-08-30T02:56:47.153Z,60.98
2022-08-30T02:59:13.979Z,60.54
2022-08-30T03:01:40.447Z,61.17
2022-08-30T03:04:06.920Z,61.04
2022-08-30T03:06:33.578Z,60.58
2022-08-30T03:08:59.974Z,60.46
2022-08-30T03:11:26.735Z,60.69
2022-08-30T03:13:53.098Z,60.00
2022-08-30T03:16:19.550Z,60.31
2022-08-30T03:18:45.953Z,60.87
2022-08-30T03:21:12.759Z,60.53
2022-08-30T03:23:40.782Z,60.35
2022-08-30T03:26:07.537Z,60.64
2022-08-30T03:28:34.098Z,60.93
2022-08-30T03:31:00.450Z,60.80
2022-08-30T03:33:26.818Z,60.85
2022-08-30T03:35:53.767Z,61.46
2022-08-30T03:38:20.152Z,61.55
2022-08-30T03:40:46.542Z,61.38
2022-08-30T03:43:13.251Z,61.06
2022-08-30T03:45:39.702Z,60.96
2022-08-30T03:48:06.095Z,60.91
2022-08-30T03:50:32.453Z,60.70
2022-08-30T03:53:01.376Z,61.21
2022-08-30T03:55:28.491Z,61.35
2022-08-30T03:57:54.895Z,61.08
2022-08-30T04:00:22.198Z,60.92
2022-08-30T04:02:48.565Z,60.82
2022-08-30T04:05:14.921Z,60.85
2022-08-30T04:07:45.455Z,60.69
2022-08-30T04:10:11.835Z,60.85
2022-08-30T04:12:38.784Z,60.17
2022-08-30T04:15:05.425Z,59.07
2022-08-30T04:17:31.807Z,59.68
2022-08-30T04:19:58.173Z,61.14
2022-08-30T04:22:24.532Z,62.51
2022-08-30T04:24:50.910Z,63.49
2022-08-30T04:27:20.219Z,63.70
2022-08-30T04:29:47.161Z,63.89
2022-08-30T04:32:13.607Z,64.32
2022-08-30T04:34:39.961Z,64.41
2022-08-30T04:37:07.079Z,64.76
2022-08-30T04:39:36.361Z,64.45
2022-08-30T04:42:03.410Z,64.45
2022-08-30T04:44:29.788Z,64.65
2022-08-30T04:46:56.198Z,64.71
2022-08-30T04:49:22.915Z,64.64
2022-08-30T04:51:49.295Z,64.76
2022-08-30T04:54:15.654Z,64.83
2022-08-30T04:56:43.641Z,64.91
2022-08-30T04:59:10.013Z,65.31
2022-08-30T05:01:45.103Z,65.42
2022-08-30T05:04:12.355Z,65.70
2022-08-30T05:06:38.759Z,65.38
2022-08-30T05:09:05.541Z,65.86
2022-08-30T05:11:31.923Z,66.38
2022-08-30T05:13:58.275Z,66.67
2022-08-30T05:16:24.701Z,66.48
2022-08-30T05:18:51.731Z,66.84
2022-08-30T05:21:22.010Z,66.84
2022-08-30T05:23:48.392Z,67.23
2022-08-30T05:26:15.966Z,67.53
2022-08-30T05:28:42.442Z,67.54
2022-08-30T05:31:14.030Z,67.79
2022-08-30T05:33:40.595Z,67.95
2022-08-30T05:36:07.402Z,67.51
2022-08-30T05:38:33.758Z,67.37
2022-08-30T05:41:00.141Z,64.20
2022-08-30T05:43:26.807Z,63.11
2022-08-30T05:46:03.037Z,62.14
2022-08-30T05:48:29.473Z,61.96
2022-08-30T05:51:02.957Z,61.85
2022-08-30T05:53:29.304Z,62.02
2022-08-30T05:55:55.679Z,62.11
2022-08-30T05:58:22.049Z,62.04
2022-08-30T06:00:48.441Z,61.72
2022-08-30T06:03:14.861Z,61.93
2022-08-30T06:05:41.338Z,62.05
2022-08-30T06:08:07.785Z,62.15
2022-08-30T06:10:34.147Z,62.84
2022-08-30T06:13:00.508Z,63.11
2022-08-30T06:15:26.954Z,63.33
2022-08-30T06:17:53.420Z,63.81
2022-08-30T06:20:20.361Z,64.19
2022-08-30T06:22:46.773Z,64.59
2022-08-30T06:25:13.158Z,64.66
2022-08-30T06:27:39.544Z,64.88
2022-08-30T06:30:08.211Z,64.99
2022-08-30T06:32:34.791Z,64.82
2022-08-30T06:35:01.145Z,64.76
2022-08-30T06:37:29.582Z,65.45
2022-08-30T06:39:57.413Z,65.35
2022-08-30T06:42:24.400Z,65.00
2022-08-30T06:44:50.934Z,64.54
2022-08-30T06:47:17.869Z,65.43
2022-08-30T06:49:44.225Z,65.44
2022-08-30T06:52:10.773Z,65.19
2022-08-30T06:54:37.382Z,65.12
2022-08-30T06:57:03.785Z,64.80
2022-08-30T06:59:31.478Z,65.69
2022-08-30T07:01:58.001Z,66.38
2022-08-30T07:04:24.458Z,66.66
2022-08-30T07:06:50.845Z,67.26
2022-08-30T07:09:17.289Z,66.31
2022-08-30T07:11:44.666Z,65.44
2022-08-30T07:14:11.026Z,65.37
2022-08-30T07:16:37.562Z,65.51
2022-08-30T07:19:04.371Z,65.11
2022-08-30T07:21:34.341Z,65.01
2022-08-30T07:24:00.707Z,65.48
2022-08-30T07:26:33.888Z,65.94
2022-08-30T07:29:00.331Z,66.28
2022-08-30T07:31:26.703Z,65.67
2022-08-30T07:33:53.208Z,64.78
2022-08-30T07:36:19.586Z,65.41
2022-08-30T07:38:46.047Z,65.76
2022-08-30T07:41:23.163Z,66.52
2022-08-30T07:43:49.689Z,67.14
2022-08-30T07:46:16.296Z,66.98
2022-08-30T07:48:42.674Z,66.81
2022-08-30T07:51:11.942Z,66.43
2022-08-30T07:53:38.354Z,66.63
2022-08-30T07:56:05.626Z,66.67
2022-08-30T07:58:32.006Z,66.85
2022-08-30T08:00:59.528Z,67.93
2022-08-30T08:03:26.442Z,68.28
2022-08-30T08:05:53.284Z,68.47
2022-08-30T08:08:19.797Z,68.98
2022-08-30T08:10:46.386Z,68.99
2022-08-30T08:13:12.779Z,69.45
2022-08-30T08:15:39.241Z,69.21
2022-08-30T08:18:05.745Z,68.68
2022-08-30T08:20:32.726Z,68.64
2022-08-30T08:22:59.088Z,68.90
2022-08-30T08:25:25.428Z,69.18
2022-08-30T08:27:52.008Z,69.36
2022-08-30T08:30:19.168Z,68.83
2022-08-30T08:32:45.546Z,69.23
2022-08-30T08:35:11.927Z,68.54
2022-08-30T08:37:38.534Z,68.26
2022-08-30T08:40:05.447Z,67.62
2022-08-30T08:42:40.869Z,67.76
2022-08-30T08:45:11.396Z,67.45
2022-08-30T08:47:41.941Z,67.41
2022-08-30T08:50:11.298Z,67.34
2022-08-30T08:53:06.989Z,67.07
2022-08-30T08:55:33.363Z,66.77
2022-08-30T08:57:59.730Z,66.98
2022-08-30T09:00:26.097Z,66.89
2022-08-30T09:02:59.898Z,66.94
2022-08-30T09:05:27.513Z,66.89
2022-08-30T09:08:09.163Z,66.90
2022-08-30T09:10:49.942Z,66.55
2022-08-30T09:13:19.096Z,66.22
2022-08-30T09:15:46.874Z,66.49
2022-08-30T09:18:19.685Z,66.24
2022-08-30T09:20:48.935Z,66.32
2022-08-30T09:23:15.210Z,66.18
2022-08-30T09:25:54.733Z,65.97
2022-08-30T09:28:22.111Z,65.84
2022-08-30T09:31:17.752Z,65.84
2022-08-30T09:34:01.682Z,65.58
2022-08-30T09:36:28.881Z,65.33
2022-08-30T09:39:01.967Z,65.12
2022-08-30T09:41:37.722Z,65.17
2022-08-30T09:44:05.484Z,65.00
2022-08-30T09:46:31.919Z,64.93
2022-08-30T09:48:58.689Z,65.01
2022-08-30T09:51:32.472Z,64.67
2022-08-30T09:54:17.124Z,64.60
2022-08-30T09:57:05.366Z,64.24
2022-08-30T09:59:59.304Z,64.19
2022-08-30T10:02:41.401Z,64.18
2022-08-30T10:05:23.014Z,64.04
2022-08-30T10:07:58.223Z,64.03
2022-08-30T10:10:27.325Z,63.87
2022-08-30T10:12:57.569Z,63.88
2022-08-30T10:15:35.534Z,64.05
2022-08-30T10:18:04.535Z,64.08
2022-08-30T10:20:33.815Z,63.76
2022-08-30T10:23:02.159Z,63.26
2022-08-30T10:25:42.614Z,62.98
2022-08-30T10:28:28.335Z,63.18
2022-08-30T10:30:56.193Z,62.36
2022-08-30T10:33:31.925Z,62.25
2022-08-30T10:35:58.543Z,61.92
2022-08-30T10:38:29.526Z,62.10
2022-08-30T10:41:13.734Z,61.84
2022-08-30T10:43:40.001Z,61.67
2022-08-30T10:46:08.594Z,61.58
2022-08-30T10:48:37.430Z,61.16
2022-08-30T10:51:08.483Z,61.23
2022-08-30T10:53:42.854Z,60.81
2022-08-30T10:56:10.235Z,61.14
2022-08-30T10:58:39.897Z,60.68
2022-08-30T11:04:14.337Z,61.08
2022-08-30T11:06:42.891Z,61.11
2022-08-30T11:09:14.407Z,60.54
2022-08-30T11:11:52.254Z,59.59
2022-08-30T11:14:18.826Z,59.97
2022-08-30T11:16:48.701Z,59.84
2022-08-30T11:19:26.311Z,60.10
2022-08-30T11:21:52.661Z,60.00
2022-08-30T11:24:21.657Z,59.94
2022-08-30T11:26:48.384Z,59.91
2022-08-30T11:29:27.595Z,60.33
2022-08-30T11:31:57.444Z,59.76
2022-08-30T11:34:43.299Z,59.92
2022-08-30T11:37:25.584Z,60.19
2022-08-30T11:39:52.579Z,60.44
2022-08-30T11:42:24.901Z,59.83
2022-08-30T11:45:14.619Z,59.92
2022-08-30T11:47:47.779Z,59.25
2022-08-30T11:50:27.068Z,59.54
2022-08-30T11:52:58.736Z,59.61
2022-08-30T11:55:27.069Z,59.33
2022-08-30T11:58:05.856Z,59.54
2022-08-30T12:00:34.722Z,59.13
2022-08-30T12:03:05.353Z,59.15
2022-08-30T12:05:38.531Z,59.14
2022-08-30T12:08:08.300Z,58.96
2022-08-30T12:10:45.470Z,59.04
2022-08-30T12:13:32.452Z,58.98
2022-08-30T12:16:03.817Z,59.07
2022-08-30T12:18:32.213Z,58.67
2022-08-30T12:21:09.117Z,57.68
2022-08-30T12:23:54.477Z,57.44
2022-08-30T12:26:20.950Z,57.10
2022-08-30T12:28:48.966Z,57.36
2022-08-30T12:31:17.522Z,56.85
2022-08-30T12:33:44.824Z,57.27
2022-08-30T12:36:15.521Z,57.18
2022-08-30T12:38:41.968Z,57.39
2022-08-30T12:41:08.975Z,57.01
2022-08-30T12:43:40.303Z,57.17
2022-08-30T12:46:08.873Z,56.89
2022-08-30T12:48:38.399Z,57.04
2022-08-30T12:51:07.159Z,57.08
2022-08-30T12:53:38.582Z,57.07
2022-08-30T12:56:06.926Z,57.18
2022-08-30T12:58:35.829Z,57.42
2022-08-30T13:01:20.016Z,57.48
2022-08-30T13:04:02.023Z,56.98
2022-08-30T13:06:43.774Z,56.73
2022-08-30T13:09:11.283Z,55.41
2022-08-30T13:11:37.633Z,54.70
2022-08-30T13:14:20.326Z,54.95
2022-08-30T13:16:47.181Z,55.35
2022-08-30T13:19:26.733Z,55.41
2022-08-30T13:21:53.786Z,55.71
2022-08-30T13:24:23.578Z,56.34
2022-08-30T13:26:51.815Z,56.51
2022-08-30T13:29:19.091Z,56.68
2022-08-30T13:31:45.601Z,55.72
2022-08-30T13:34:12.045Z,54.59
2022-08-30T13:36:40.137Z,54.16
2022-08-30T13:39:12.263Z,55.52
2022-08-30T13:41:39.328Z,55.56
2022-08-30T13:44:11.926Z,55.67
2022-08-30T13:46:39.832Z,55.97
2022-08-30T13:52:18.917Z,55.68
2022-08-30T13:54:46.273Z,55.38
2022-08-30T13:57:16.576Z,55.89
2022-08-30T13:59:42.970Z,55.98
2022-08-30T14:02:16.283Z,56.32
2022-08-30T14:04:42.781Z,56.28
2022-08-30T14:07:13.907Z,56.36
2022-08-30T14:09:43.241Z,56.45
2022-08-30T14:12:09.624Z,56.51
2022-08-30T14:14:43.317Z,56.55
2022-08-30T14:17:10.403Z,56.89
2022-08-30T14:19:38.969Z,57.07
2022-08-30T14:22:05.319Z,57.10
2022-08-30T14:24:31.852Z,57.04
2022-08-30T14:26:58.606Z,56.18
2022-08-30T14:29:26.040Z,56.27
2022-08-30T14:31:52.691Z,55.73
2022-08-30T14:34:19.129Z,57.00
2022-08-30T14:36:45.737Z,57.18
2022-08-30T14:39:14.471Z,56.35
2022-08-30T14:41:43.668Z,56.63
2022-08-30T14:44:10.779Z,56.77
2022-08-30T14:46:37.206Z,56.19
2022-08-30T14:49:03.631Z,56.39
2022-08-30T14:51:32.262Z,56.93
2022-08-30T14:54:00.029Z,57.05
2022-08-30T14:56:26.377Z,57.65
2022-08-30T14:58:52.987Z,57.60
2022-08-30T15:01:19.671Z,57.84
2022-08-30T15:03:46.178Z,58.10
2022-08-30T15:06:12.545Z,58.20
2022-08-30T15:08:39.399Z,57.97
2022-08-30T15:11:09.378Z,58.07
2022-08-30T15:13:35.742Z,58.17
2022-08-30T15:16:02.225Z,58.45
2022-08-30T15:18:28.655Z,57.81
2022-08-30T15:20:56.210Z,58.38
2022-08-30T15:23:24.810Z,57.57
2022-08-30T15:25:51.503Z,57.60
2022-08-30T15:28:19.094Z,57.38
2022-08-30T15:30:45.563Z,57.40
2022-08-30T15:33:11.946Z,57.11
2022-08-30T15:35:38.517Z,57.31
2022-08-30T15:38:04.895Z,57.32
2022-08-30T15:40:32.317Z,57.40
2022-08-30T15:42:58.862Z,56.95
2022-08-30T15:45:25.743Z,57.43
2022-08-30T15:47:52.111Z,57.44
2022-08-30T15:50:18.551Z,57.69
2022-08-30T15:52:44.921Z,57.32
2022-08-30T15:55:11.273Z,57.44
2022-08-30T15:57:37.637Z,57.29
2022-08-30T16:00:06.443Z,57.49
2022-08-30T16:02:35.152Z,57.41
2022-08-30T16:05:01.648Z,57.81
2022-08-30T16:07:28.014Z,57.51
2022-08-30T16:09:54.389Z,57.41
2022-08-30T16:12:23.840Z,57.69
2022-08-30T16:14:50.344Z,57.12
2022-08-30T16:17:16.700Z,57.19
2022-08-30T16:19:44.626Z,57.10
2022-08-30T16:22:11.311Z,57.25
2022-08-30T16:24:38.275Z,57.58
2022-08-30T16:27:05.574Z,57.15
2022-08-30T16:29:35.153Z,57.20
2022-08-30T16:32:01.538Z,57.20
2022-08-30T16:34:27.914Z,57.05
2022-08-30T16:36:54.387Z,57.32
2022-08-30T16:39:20.754Z,56.88
2022-08-30T16:41:47.146Z,57.23
2022-08-30T16:44:15.950Z,57.16
2022-08-30T16:46:52.594Z,57.18
2022-08-30T16:49:19.868Z,57.52
2022-08-30T16:51:46.281Z,57.31
2022-08-30T16:54:13.327Z,57.83
2022-08-30T16:56:39.716Z,57.87
2022-08-30T16:59:10.881Z,57.67
2022-08-30T17:01:38.446Z,57.39
2022-08-30T17:04:05.326Z,57.60
2022-08-30T17:06:32.155Z,57.85
2022-08-30T17:08:58.569Z,58.43
2022-08-30T17:11:24.939Z,58.01
2022-08-30T17:13:51.383Z,57.71
2022-08-30T17:16:22.565Z,57.86
2022-08-30T17:18:54.133Z,58.18
2022-08-30T17:21:20.507Z,58.03
2022-08-30T17:23:48.182Z,57.78
2022-08-30T17:26:15.731Z,57.99
2022-08-30T17:28:42.103Z,58.11
2022-08-30T17:31:08.461Z,57.90
2022-08-30T17:33:38.964Z,58.81
2022-08-30T17:36:06.472Z,58.44
2022-08-30T17:38:32.893Z,58.55
2022-08-30T17:41:31.103Z,58.76
2022-08-30T17:43:57.466Z,58.81
2022-08-30T17:46:25.292Z,59.35
2022-08-30T17:48:57.977Z,59.51
2022-08-30T17:51:28.062Z,59.32
2022-08-30T17:53:54.432Z,59.68
2022-08-30T17:56:21.818Z,59.39
2022-08-30T17:58:50.359Z,59.81
2022-08-30T18:01:17.165Z,59.88
2022-08-30T18:03:45.300Z,59.62
2022-08-30T18:06:12.063Z,59.23
2022-08-30T18:08:38.443Z,59.28
2022-08-30T18:11:05.982Z,59.49
2022-08-30T18:13:32.468Z,59.54
2022-08-30T18:16:00.620Z,59.45
2022-08-30T18:18:27.686Z,59.70
2022-08-30T18:20:54.863Z,59.86
2022-08-30T18:23:24.189Z,59.65
2022-08-30T18:25:55.425Z,59.06
2022-08-30T18:28:21.844Z,58.98
2022-08-30T18:30:48.206Z,59.05
2022-08-30T18:33:14.570Z,58.99
2022-08-30T18:35:47.552Z,58.65
2022-08-30T18:38:14.907Z,58.68
2022-08-30T18:40:41.320Z,58.70
2022-08-30T18:43:09.971Z,58.88
2022-08-30T18:45:36.627Z,59.43
2022-08-30T18:48:03.786Z,59.85
2022-08-30T18:50:30.230Z,59.20
2022-08-30T18:52:57.104Z,59.25
2022-08-30T18:55:26.837Z,58.68
2022-08-30T18:57:53.198Z,58.43
2022-08-30T19:00:21.083Z,58.67
2022-08-30T19:02:47.522Z,58.47
2022-08-30T19:05:15.969Z,58.46
2022-08-30T19:07:42.862Z,58.61
2022-08-30T19:10:12.255Z,58.34
2022-08-30T19:12:38.977Z,58.42
2022-08-30T19:15:11.070Z,58.34
2022-08-30T19:17:38.363Z,58.15
2022-08-30T19:20:05.775Z,58.07
2022-08-30T19:23:03.484Z,57.90
2022-08-30T19:25:18.899Z,57.91
2022-08-30T19:27:45.261Z,58.10
2022-08-30T19:30:15.193Z,57.94
2022-08-30T19:32:45.054Z,57.73
2022-08-30T19:35:13.658Z,57.87
2022-08-30T19:37:44.202Z,58.20
2022-08-30T19:40:11.458Z,57.77
2022-08-30T19:42:43.243Z,58.09
2022-08-30T19:45:12.763Z,57.86
2022-08-30T19:47:39.151Z,58.05
2022-08-30T19:50:05.877Z,57.64
2022-08-30T19:52:32.249Z,57.64
2022-08-30T19:54:59.159Z,57.58
2022-08-30T19:57:25.546Z,57.50
2022-08-30T19:59:51.935Z,57.39
2022-08-30T20:02:18.370Z,57.43
2022-08-30T20:04:45.008Z,57.82
2022-08-30T20:07:14.271Z,57.84
2022-08-30T20:09:40.710Z,57.72
2022-08-30T20:12:07.185Z,57.54
2022-08-30T20:14:33.541Z,57.91
2022-08-30T20:16:59.939Z,57.86
2022-08-30T20:19:29.320Z,57.47
2022-08-30T20:21:55.912Z,57.92
2022-08-30T20:24:32.045Z,57.79
2022-08-30T20:26:58.478Z,57.75
2022-08-30T20:29:24.823Z,57.62
2022-08-30T20:31:51.188Z,57.70
2022-08-30T20:34:17.546Z,57.84
2022-08-30T20:36:43.901Z,57.66
2022-08-30T20:39:10.251Z,57.88
2022-08-30T20:41:42.920Z,57.67
2022-08-30T20:44:11.929Z,57.59
2022-08-30T20:46:45.033Z,57.48
2022-08-30T20:49:11.684Z,57.75
2022-08-30T20:51:39.497Z,57.74
2022-08-30T20:54:05.919Z,57.61
2022-08-30T20:56:34.233Z,57.84
2022-08-30T20:59:02.499Z,57.81
2022-08-30T21:01:30.487Z,57.65
2022-08-30T21:03:56.899Z,57.69
2022-08-30T21:06:23.413Z,57.89
2022-08-30T21:08:49.761Z,57.95
2022-08-30T21:11:16.166Z,57.94
2022-08-30T21:13:42.661Z,57.78
2022-08-30T21:16:09.026Z,57.98
2022-08-30T21:18:38.693Z,57.95
2022-08-30T21:21:15.811Z,57.60
2022-08-30T21:23:42.770Z,57.75
2022-08-30T21:26:09.147Z,57.46
2022-08-30T21:28:35.509Z,57.38
2022-08-30T21:31:05.592Z,57.20
2022-08-30T21:33:32.009Z,56.98
2022-08-30T21:36:17.050Z,56.58
2022-08-30T21:38:43.792Z,56.65
2022-08-30T21:41:10.286Z,56.49
2022-08-30T21:43:36.646Z,56.13
2022-08-30T21:46:06.816Z,56.33
2022-08-30T21:48:33.817Z,56.22
2022-08-30T21:51:07.293Z,55.72
2022-08-30T21:53:33.687Z,55.99
2022-08-30T21:56:06.289Z,55.93
2022-08-30T21:58:32.839Z,55.67
2022-08-30T22:00:59.243Z,55.74
2022-08-30T22:03:25.718Z,55.18
2022-08-30T22:05:52.416Z,55.56
2022-08-30T22:08:18.767Z,55.58
2022-08-30T22:10:45.138Z,55.05
2022-08-30T22:13:12.979Z,55.16
2022-08-30T22:15:39.913Z,55.21
2022-08-30T22:18:06.275Z,55.25
2022-08-30T22:20:32.655Z,55.02
2022-08-30T22:22:59.030Z,54.96
2022-08-30T22:25:25.418Z,54.52
2022-08-30T22:27:51.993Z,54.79
2022-08-30T22:30:18.360Z,54.73
2022-08-30T22:32:44.747Z,54.72
2022-08-30T22:35:11.369Z,54.47
2022-08-30T22:37:37.730Z,54.72
2022-08-30T22:40:04.126Z,54.74
2022-08-30T22:42:30.499Z,54.74
2022-08-30T22:44:56.871Z,54.23
2022-08-30T22:47:23.265Z,54.14
2022-08-30T22:49:49.655Z,54.18
2022-08-30T22:52:16.036Z,54.53
2022-08-30T22:54:42.393Z,54.34
2022-08-30T22:57:10.277Z,54.42
2022-08-30T22:59:36.835Z,54.47
2022-08-30T23:02:03.459Z,54.39
2022-08-30T23:04:30.523Z,54.19
2022-08-30T23:06:56.893Z,54.48
2022-08-30T23:09:23.283Z,54.66
2022-08-30T23:11:49.646Z,54.78
2022-08-30T23:14:16.094Z,54.44
2022-08-30T23:16:42.485Z,54.40
2022-08-30T23:19:09.058Z,54.60
2022-08-30T23:21:35.422Z,54.58
2022-08-30T23:24:20.252Z,54.54
2022-08-30T23:27:05.251Z,54.75
2022-08-30T23:29:50.103Z,54.17
2022-08-30T23:32:34.982Z,54.62
2022-08-30T23:35:19.784Z,54.30
2022-08-30T23:38:05.140Z,54.32
2022-08-30T23:40:50.121Z,54.30
2022-08-30T23:43:34.869Z,54.28
2022-08-30T23:46:19.931Z,54.14
2022-08-30T23:49:05.613Z,54.35
2022-08-30T23:51:50.618Z,54.53
2022-08-30T23:54:35.461Z,54.46
2022-08-30T23:57:20.436Z,54.57
